sensor_id;sensor_type;location;lat;lon;timestamp;temperature;humidity
67899;DHT22;54699;51.796;10.956;2023-02-01T00:00:14;15.70;50.60
67899;DHT22;54699;51.796;10.956;2023-02-01T00:02:40;15.70;51.40
67899;DHT22;54699;51.796;10.956;2023-02-01T00:05:08;15.60;50.50
67899;DHT22;54699;51.796;10.956;2023-02-01T00:07:36;15.70;50.60
67899;DHT22;54699;51.796;10.956;2023-02-01T00:10:07;15.70;50.60
67899;DHT22;54699;51.796;10.956;2023-02-01T00:12:34;15.70;50.60
67899;DHT22;54699;51.796;10.956;2023-02-01T00:15:01;15.60;50.50
67899;DHT22;54699;51.796;10.956;2023-02-01T00:17:29;15.60;50.50
67899;DHT22;54699;51.796;10.956;2023-02-01T00:19:55;15.60;50.40
67899;DHT22;54699;51.796;10.956;2023-02-01T00:22:22;15.70;50.60
67899;DHT22;54699;51.796;10.956;2023-02-01T00:24:50;15.70;50.50
67899;DHT22;54699;51.796;10.956;2023-02-01T00:27:17;15.60;50.60
67899;DHT22;54699;51.796;10.956;2023-02-01T00:29:46;15.60;50.40
67899;DHT22;54699;51.796;10.956;2023-02-01T00:32:13;15.60;50.50
67899;DHT22;54699;51.796;10.956;2023-02-01T00:34:40;15.60;50.50
67899;DHT22;54699;51.796;10.956;2023-02-01T00:37:06;15.60;50.40
67899;DHT22;54699;51.796;10.956;2023-02-01T00:39:33;15.60;50.50
67899;DHT22;54699;51.796;10.956;2023-02-01T00:42:01;15.60;50.50
67899;DHT22;54699;51.796;10.956;2023-02-01T00:44:28;15.60;50.40
67899;DHT22;54699;51.796;10.956;2023-02-01T00:46:58;15.60;50.40
67899;DHT22;54699;51.796;10.956;2023-02-01T00:49:25;15.60;50.40
67899;DHT22;54699;51.796;10.956;2023-02-01T00:51:52;15.60;50.50
67899;DHT22;54699;51.796;10.956;2023-02-01T00:54:19;15.60;50.60
67899;DHT22;54699;51.796;10.956;2023-02-01T00:56:46;15.50;50.40
67899;DHT22;54699;51.796;10.956;2023-02-01T00:59:14;15.60;51.40
67899;DHT22;54699;51.796;10.956;2023-02-01T01:01:41;15.60;50.60
67899;DHT22;54699;51.796;10.956;2023-02-01T01:04:08;15.60;50.40
67899;DHT22;54699;51.796;10.956;2023-02-01T01:06:35;15.60;50.50
67899;DHT22;54699;51.796;10.956;2023-02-01T01:09:02;15.50;50.40
67899;DHT22;54699;51.796;10.956;2023-02-01T01:11:31;15.50;50.30
67899;DHT22;54699;51.796;10.956;2023-02-01T01:14:00;15.50;50.30
67899;DHT22;54699;51.796;10.956;2023-02-01T01:16:29;15.50;50.30
67899;DHT22;54699;51.796;10.956;2023-02-01T01:18:57;15.60;50.40
67899;DHT22;54699;51.796;10.956;2023-02-01T01:21:25;15.50;50.30
67899;DHT22;54699;51.796;10.956;2023-02-01T01:23:52;15.60;50.40
67899;DHT22;54699;51.796;10.956;2023-02-01T01:26:20;15.60;50.30
67899;DHT22;54699;51.796;10.956;2023-02-01T01:28:49;15.60;50.30
67899;DHT22;54699;51.796;10.956;2023-02-01T01:31:17;15.50;50.20
67899;DHT22;54699;51.796;10.956;2023-02-01T01:33:46;15.60;50.30
67899;DHT22;54699;51.796;10.956;2023-02-01T01:36:14;15.60;50.30
67899;DHT22;54699;51.796;10.956;2023-02-01T01:38:41;15.60;50.30
67899;DHT22;54699;51.796;10.956;2023-02-01T01:41:08;15.60;50.30
67899;DHT22;54699;51.796;10.956;2023-02-01T01:43:46;15.50;50.20
67899;DHT22;54699;51.796;10.956;2023-02-01T01:46:16;15.60;50.30
67899;DHT22;54699;51.796;10.956;2023-02-01T01:48:45;15.50;50.20
67899;DHT22;54699;51.796;10.956;2023-02-01T01:51:17;15.50;50.20
67899;DHT22;54699;51.796;10.956;2023-02-01T01:53:48;15.50;50.20
67899;DHT22;54699;51.796;10.956;2023-02-01T01:56:20;15.50;50.20
67899;DHT22;54699;51.796;10.956;2023-02-01T01:58:48;15.50;50.20
67899;DHT22;54699;51.796;10.956;2023-02-01T02:01:15;15.50;50.20
67899;DHT22;54699;51.796;10.956;2023-02-01T02:03:43;15.50;50.10
67899;DHT22;54699;51.796;10.956;2023-02-01T02:06:15;15.50;50.20
67899;DHT22;54699;51.796;10.956;2023-02-01T02:08:51;15.50;50.20
67899;DHT22;54699;51.796;10.956;2023-02-01T02:11:18;15.50;50.20
67899;DHT22;54699;51.796;10.956;2023-02-01T02:13:46;15.50;50.20
67899;DHT22;54699;51.796;10.956;2023-02-01T02:22:24;15.50;50.20
67899;DHT22;54699;51.796;10.956;2023-02-01T02:25:29;15.50;50.10
67899;DHT22;54699;51.796;10.956;2023-02-01T02:28:29;15.50;50.10
67899;DHT22;54699;51.796;10.956;2023-02-01T02:31:14;15.50;50.10
67899;DHT22;54699;51.796;10.956;2023-02-01T02:34:03;15.50;50.10
67899;DHT22;54699;51.796;10.956;2023-02-01T02:36:41;15.50;50.10
67899;DHT22;54699;51.796;10.956;2023-02-01T02:39:19;15.50;50.00
67899;DHT22;54699;51.796;10.956;2023-02-01T02:41:55;15.50;50.00
67899;DHT22;54699;51.796;10.956;2023-02-01T02:44:45;15.50;50.00
67899;DHT22;54699;51.796;10.956;2023-02-01T02:47:34;15.50;50.00
67899;DHT22;54699;51.796;10.956;2023-02-01T02:50:11;15.50;50.00
67899;DHT22;54699;51.796;10.956;2023-02-01T02:53:01;15.50;50.00
67899;DHT22;54699;51.796;10.956;2023-02-01T02:55:48;15.50;50.10
67899;DHT22;54699;51.796;10.956;2023-02-01T02:58:16;15.50;50.10
67899;DHT22;54699;51.796;10.956;2023-02-01T03:01:02;15.50;50.00
67899;DHT22;54699;51.796;10.956;2023-02-01T03:03:47;15.50;50.00
67899;DHT22;54699;51.796;10.956;2023-02-01T03:06:36;15.50;50.00
67899;DHT22;54699;51.796;10.956;2023-02-01T03:09:06;15.50;50.00
67899;DHT22;54699;51.796;10.956;2023-02-01T03:11:39;15.50;50.00
67899;DHT22;54699;51.796;10.956;2023-02-01T03:14:28;15.40;49.90
67899;DHT22;54699;51.796;10.956;2023-02-01T03:16:57;15.40;50.00
67899;DHT22;54699;51.796;10.956;2023-02-01T03:19:31;15.40;49.90
67899;DHT22;54699;51.796;10.956;2023-02-01T03:22:05;15.40;50.00
67899;DHT22;54699;51.796;10.956;2023-02-01T03:24:36;15.40;49.80
67899;DHT22;54699;51.796;10.956;2023-02-01T03:27:05;15.40;49.90
67899;DHT22;54699;51.796;10.956;2023-02-01T03:29:37;15.50;49.90
67899;DHT22;54699;51.796;10.956;2023-02-01T03:32:11;15.40;49.80
67899;DHT22;54699;51.796;10.956;2023-02-01T03:34:38;15.40;49.90
67899;DHT22;54699;51.796;10.956;2023-02-01T03:37:06;15.40;49.80
67899;DHT22;54699;51.796;10.956;2023-02-01T03:39:38;15.40;49.80
67899;DHT22;54699;51.796;10.956;2023-02-01T03:42:10;15.40;49.80
67899;DHT22;54699;51.796;10.956;2023-02-01T03:44:41;15.40;49.80
67899;DHT22;54699;51.796;10.956;2023-02-01T03:47:13;15.40;49.80
67899;DHT22;54699;51.796;10.956;2023-02-01T03:49:45;15.40;49.80
67899;DHT22;54699;51.796;10.956;2023-02-01T03:52:18;15.40;49.80
67899;DHT22;54699;51.796;10.956;2023-02-01T03:54:49;15.40;49.80
67899;DHT22;54699;51.796;10.956;2023-02-01T03:57:18;15.40;49.90
67899;DHT22;54699;51.796;10.956;2023-02-01T03:59:49;15.40;49.80
67899;DHT22;54699;51.796;10.956;2023-02-01T04:02:16;15.40;49.70
67899;DHT22;54699;51.796;10.956;2023-02-01T04:04:43;15.40;49.80
67899;DHT22;54699;51.796;10.956;2023-02-01T04:07:10;15.40;49.80
67899;DHT22;54699;51.796;10.956;2023-02-01T04:09:38;15.40;49.70
67899;DHT22;54699;51.796;10.956;2023-02-01T04:12:05;15.40;49.60
67899;DHT22;54699;51.796;10.956;2023-02-01T04:14:33;15.40;49.60
67899;DHT22;54699;51.796;10.956;2023-02-01T04:17:00;15.40;49.60
67899;DHT22;54699;51.796;10.956;2023-02-01T04:19:26;15.40;49.60
67899;DHT22;54699;51.796;10.956;2023-02-01T04:21:53;15.40;49.70
67899;DHT22;54699;51.796;10.956;2023-02-01T04:24:20;15.40;49.70
67899;DHT22;54699;51.796;10.956;2023-02-01T04:26:48;15.40;49.60
67899;DHT22;54699;51.796;10.956;2023-02-01T04:29:15;15.40;49.60
67899;DHT22;54699;51.796;10.956;2023-02-01T04:31:42;15.40;49.60
67899;DHT22;54699;51.796;10.956;2023-02-01T04:34:09;15.40;49.60
67899;DHT22;54699;51.796;10.956;2023-02-01T04:36:36;15.40;49.60
67899;DHT22;54699;51.796;10.956;2023-02-01T04:39:02;15.40;49.70
67899;DHT22;54699;51.796;10.956;2023-02-01T04:41:29;15.40;49.60
67899;DHT22;54699;51.796;10.956;2023-02-01T04:43:57;15.40;49.50
67899;DHT22;54699;51.796;10.956;2023-02-01T04:46:24;15.40;49.60
67899;DHT22;54699;51.796;10.956;2023-02-01T04:48:51;15.40;49.60
67899;DHT22;54699;51.796;10.956;2023-02-01T04:51:18;15.40;49.60
67899;DHT22;54699;51.796;10.956;2023-02-01T04:53:45;15.40;49.60
67899;DHT22;54699;51.796;10.956;2023-02-01T04:56:11;15.30;49.60
67899;DHT22;54699;51.796;10.956;2023-02-01T04:58:38;15.40;49.80
67899;DHT22;54699;51.796;10.956;2023-02-01T05:01:06;15.40;49.60
67899;DHT22;54699;51.796;10.956;2023-02-01T05:03:34;15.40;49.50
67899;DHT22;54699;51.796;10.956;2023-02-01T05:06:01;15.40;49.50
67899;DHT22;54699;51.796;10.956;2023-02-01T05:08:29;15.50;49.40
67899;DHT22;54699;51.796;10.956;2023-02-01T05:10:56;15.50;49.40
67899;DHT22;54699;51.796;10.956;2023-02-01T05:13:24;15.50;49.30
67899;DHT22;54699;51.796;10.956;2023-02-01T05:16:09;15.50;49.20
67899;DHT22;54699;51.796;10.956;2023-02-01T05:18:36;15.60;49.20
67899;DHT22;54699;51.796;10.956;2023-02-01T05:21:03;15.50;49.20
67899;DHT22;54699;51.796;10.956;2023-02-01T05:23:30;15.60;49.30
67899;DHT22;54699;51.796;10.956;2023-02-01T05:25:58;15.60;49.10
67899;DHT22;54699;51.796;10.956;2023-02-01T05:28:26;15.60;49.00
67899;DHT22;54699;51.796;10.956;2023-02-01T05:30:53;15.70;49.10
67899;DHT22;54699;51.796;10.956;2023-02-01T05:33:21;15.60;49.00
67899;DHT22;54699;51.796;10.956;2023-02-01T05:35:48;15.60;48.90
67899;DHT22;54699;51.796;10.956;2023-02-01T05:38:15;15.60;48.90
67899;DHT22;54699;51.796;10.956;2023-02-01T05:40:42;15.70;49.10
67899;DHT22;54699;51.796;10.956;2023-02-01T05:43:14;15.70;49.00
67899;DHT22;54699;51.796;10.956;2023-02-01T05:45:42;15.60;48.50
67899;DHT22;54699;51.796;10.956;2023-02-01T05:48:09;15.60;48.60
67899;DHT22;54699;51.796;10.956;2023-02-01T05:50:37;15.60;48.60
67899;DHT22;54699;51.796;10.956;2023-02-01T05:53:05;15.70;48.70
67899;DHT22;54699;51.796;10.956;2023-02-01T05:55:32;15.70;46.90
67899;DHT22;54699;51.796;10.956;2023-02-01T05:58:00;15.70;47.60
67899;DHT22;54699;51.796;10.956;2023-02-01T06:00:27;15.80;47.20
67899;DHT22;54699;51.796;10.956;2023-02-01T06:02:54;15.70;48.00
67899;DHT22;54699;51.796;10.956;2023-02-01T06:05:21;15.60;48.10
67899;DHT22;54699;51.796;10.956;2023-02-01T06:07:50;15.70;47.80
67899;DHT22;54699;51.796;10.956;2023-02-01T06:10:18;15.60;47.40
67899;DHT22;54699;51.796;10.956;2023-02-01T06:12:45;15.60;46.90
67899;DHT22;54699;51.796;10.956;2023-02-01T06:15:12;15.70;47.20
67899;DHT22;54699;51.796;10.956;2023-02-01T06:17:41;15.70;47.80
67899;DHT22;54699;51.796;10.956;2023-02-01T06:20:09;15.80;47.70
67899;DHT22;54699;51.796;10.956;2023-02-01T06:22:37;15.80;48.00
67899;DHT22;54699;51.796;10.956;2023-02-01T06:25:07;15.80;47.80
67899;DHT22;54699;51.796;10.956;2023-02-01T06:27:36;15.90;47.60
67899;DHT22;54699;51.796;10.956;2023-02-01T06:30:04;15.90;47.60
67899;DHT22;54699;51.796;10.956;2023-02-01T06:32:32;15.80;47.50
67899;DHT22;54699;51.796;10.956;2023-02-01T06:34:59;15.80;47.50
67899;DHT22;54699;51.796;10.956;2023-02-01T06:37:26;15.90;47.50
67899;DHT22;54699;51.796;10.956;2023-02-01T06:39:54;15.90;47.50
67899;DHT22;54699;51.796;10.956;2023-02-01T06:42:23;15.60;47.70
67899;DHT22;54699;51.796;10.956;2023-02-01T06:44:51;15.70;47.40
67899;DHT22;54699;51.796;10.956;2023-02-01T06:47:17;15.70;47.50
67899;DHT22;54699;51.796;10.956;2023-02-01T06:49:44;15.80;47.60
67899;DHT22;54699;51.796;10.956;2023-02-01T06:52:11;15.80;47.70
67899;DHT22;54699;51.796;10.956;2023-02-01T06:54:38;15.90;47.30
67899;DHT22;54699;51.796;10.956;2023-02-01T06:57:06;15.90;47.30
67899;DHT22;54699;51.796;10.956;2023-02-01T06:59:34;15.80;47.80
67899;DHT22;54699;51.796;10.956;2023-02-01T07:02:01;15.70;46.90
67899;DHT22;54699;51.796;10.956;2023-02-01T07:04:28;15.90;47.30
67899;DHT22;54699;51.796;10.956;2023-02-01T07:06:56;15.90;46.60
67899;DHT22;54699;51.796;10.956;2023-02-01T07:09:22;15.80;47.10
67899;DHT22;54699;51.796;10.956;2023-02-01T07:11:49;15.80;46.60
67899;DHT22;54699;51.796;10.956;2023-02-01T07:14:16;15.90;46.40
67899;DHT22;54699;51.796;10.956;2023-02-01T07:16:45;16.00;46.90
67899;DHT22;54699;51.796;10.956;2023-02-01T07:19:12;15.90;46.40
67899;DHT22;54699;51.796;10.956;2023-02-01T07:21:39;16.00;46.80
67899;DHT22;54699;51.796;10.956;2023-02-01T07:24:06;16.00;47.00
67899;DHT22;54699;51.796;10.956;2023-02-01T07:26:33;16.00;46.90
67899;DHT22;54699;51.796;10.956;2023-02-01T07:29:01;16.00;47.00
67899;DHT22;54699;51.796;10.956;2023-02-01T07:31:28;16.00;46.90
67899;DHT22;54699;51.796;10.956;2023-02-01T07:33:56;16.00;47.80
67899;DHT22;54699;51.796;10.956;2023-02-01T07:36:24;16.10;47.00
67899;DHT22;54699;51.796;10.956;2023-02-01T07:38:51;16.00;46.90
67899;DHT22;54699;51.796;10.956;2023-02-01T07:41:18;16.00;47.00
67899;DHT22;54699;51.796;10.956;2023-02-01T07:43:45;16.00;47.10
67899;DHT22;54699;51.796;10.956;2023-02-01T07:46:12;16.00;47.20
67899;DHT22;54699;51.796;10.956;2023-02-01T07:48:40;16.00;47.20
67899;DHT22;54699;51.796;10.956;2023-02-01T07:51:09;16.00;47.30
67899;DHT22;54699;51.796;10.956;2023-02-01T07:53:38;16.00;47.30
67899;DHT22;54699;51.796;10.956;2023-02-01T07:56:09;16.00;47.20
67899;DHT22;54699;51.796;10.956;2023-02-01T07:58:38;16.00;47.30
67899;DHT22;54699;51.796;10.956;2023-02-01T08:01:05;15.90;47.30
67899;DHT22;54699;51.796;10.956;2023-02-01T08:03:46;15.90;47.10
67899;DHT22;54699;51.796;10.956;2023-02-01T08:06:15;15.90;47.60
67899;DHT22;54699;51.796;10.956;2023-02-01T08:08:42;15.90;47.60
67899;DHT22;54699;51.796;10.956;2023-02-01T08:11:10;15.90;47.30
67899;DHT22;54699;51.796;10.956;2023-02-01T08:13:37;15.90;47.50
67899;DHT22;54699;51.796;10.956;2023-02-01T08:16:05;15.90;47.40
67899;DHT22;54699;51.796;10.956;2023-02-01T08:18:32;15.90;47.50
67899;DHT22;54699;51.796;10.956;2023-02-01T08:21:02;16.00;47.30
67899;DHT22;54699;51.796;10.956;2023-02-01T08:23:31;15.90;47.60
67899;DHT22;54699;51.796;10.956;2023-02-01T08:26:06;15.90;47.50
67899;DHT22;54699;51.796;10.956;2023-02-01T08:28:34;16.00;47.60
67899;DHT22;54699;51.796;10.956;2023-02-01T08:31:05;16.00;47.90
67899;DHT22;54699;51.796;10.956;2023-02-01T08:33:33;16.00;47.90
67899;DHT22;54699;51.796;10.956;2023-02-01T08:36:02;16.00;48.00
67899;DHT22;54699;51.796;10.956;2023-02-01T08:38:41;15.90;47.70
67899;DHT22;54699;51.796;10.956;2023-02-01T08:41:18;15.90;47.80
67899;DHT22;54699;51.796;10.956;2023-02-01T08:43:49;16.00;46.40
67899;DHT22;54699;51.796;10.956;2023-02-01T08:46:17;16.00;46.80
67899;DHT22;54699;51.796;10.956;2023-02-01T08:48:45;16.10;47.40
67899;DHT22;54699;51.796;10.956;2023-02-01T08:51:16;16.30;48.00
67899;DHT22;54699;51.796;10.956;2023-02-01T08:53:46;16.40;48.00
67899;DHT22;54699;51.796;10.956;2023-02-01T08:56:15;16.50;48.30
67899;DHT22;54699;51.796;10.956;2023-02-01T08:58:44;16.70;47.60
67899;DHT22;54699;51.796;10.956;2023-02-01T09:01:15;16.70;48.00
67899;DHT22;54699;51.796;10.956;2023-02-01T09:03:52;16.90;47.80
67899;DHT22;54699;51.796;10.956;2023-02-01T09:06:19;16.80;46.80
67899;DHT22;54699;51.796;10.956;2023-02-01T09:08:48;16.70;46.70
67899;DHT22;54699;51.796;10.956;2023-02-01T09:11:15;16.80;45.80
67899;DHT22;54699;51.796;10.956;2023-02-01T09:13:44;16.90;45.00
67899;DHT22;54699;51.796;10.956;2023-02-01T09:16:11;16.80;46.90
67899;DHT22;54699;51.796;10.956;2023-02-01T09:18:39;16.70;47.70
67899;DHT22;54699;51.796;10.956;2023-02-01T09:21:07;16.60;46.30
67899;DHT22;54699;51.796;10.956;2023-02-01T09:23:34;16.60;47.20
67899;DHT22;54699;51.796;10.956;2023-02-01T09:26:04;16.60;47.80
67899;DHT22;54699;51.796;10.956;2023-02-01T09:28:32;16.60;47.60
67899;DHT22;54699;51.796;10.956;2023-02-01T09:30:59;16.60;47.90
67899;DHT22;54699;51.796;10.956;2023-02-01T09:33:28;16.50;47.60
67899;DHT22;54699;51.796;10.956;2023-02-01T09:35:56;16.40;48.50
67899;DHT22;54699;51.796;10.956;2023-02-01T09:38:23;16.40;48.00
67899;DHT22;54699;51.796;10.956;2023-02-01T09:40:54;16.40;47.90
67899;DHT22;54699;51.796;10.956;2023-02-01T09:43:32;16.40;48.10
67899;DHT22;54699;51.796;10.956;2023-02-01T09:46:13;16.40;48.20
67899;DHT22;54699;51.796;10.956;2023-02-01T09:48:48;16.40;48.30
67899;DHT22;54699;51.796;10.956;2023-02-01T09:51:20;16.30;48.50
67899;DHT22;54699;51.796;10.956;2023-02-01T09:53:55;16.30;48.50
67899;DHT22;54699;51.796;10.956;2023-02-01T09:56:29;16.40;47.90
67899;DHT22;54699;51.796;10.956;2023-02-01T09:59:04;16.40;53.80
67899;DHT22;54699;51.796;10.956;2023-02-01T10:01:37;16.30;51.80
67899;DHT22;54699;51.796;10.956;2023-02-01T10:04:05;16.30;52.50
67899;DHT22;54699;51.796;10.956;2023-02-01T10:06:40;16.30;52.10
67899;DHT22;54699;51.796;10.956;2023-02-01T10:15:12;16.40;53.40
67899;DHT22;54699;51.796;10.956;2023-02-01T10:17:51;16.40;53.80
67899;DHT22;54699;51.796;10.956;2023-02-01T10:20:26;16.40;53.40
67899;DHT22;54699;51.796;10.956;2023-02-01T10:23:06;16.40;52.10
67899;DHT22;54699;51.796;10.956;2023-02-01T10:25:44;16.40;53.50
67899;DHT22;54699;51.796;10.956;2023-02-01T10:28:20;16.30;53.00
67899;DHT22;54699;51.796;10.956;2023-02-01T10:30:51;16.30;52.40
67899;DHT22;54699;51.796;10.956;2023-02-01T10:33:23;16.40;50.00
67899;DHT22;54699;51.796;10.956;2023-02-01T10:35:53;16.50;51.20
67899;DHT22;54699;51.796;10.956;2023-02-01T10:38:29;16.50;51.30
67899;DHT22;54699;51.796;10.956;2023-02-01T10:41:00;16.60;49.60
67899;DHT22;54699;51.796;10.956;2023-02-01T10:43:31;16.70;48.10
67899;DHT22;54699;51.796;10.956;2023-02-01T10:46:01;16.80;49.40
67899;DHT22;54699;51.796;10.956;2023-02-01T10:48:28;16.80;49.40
67899;DHT22;54699;51.796;10.956;2023-02-01T10:50:57;16.90;49.40
67899;DHT22;54699;51.796;10.956;2023-02-01T10:53:28;17.10;49.60
67899;DHT22;54699;51.796;10.956;2023-02-01T10:56:05;17.10;50.60
67899;DHT22;54699;51.796;10.956;2023-02-01T10:58:34;17.20;50.90
67899;DHT22;54699;51.796;10.956;2023-02-01T11:01:15;17.20;50.20
67899;DHT22;54699;51.796;10.956;2023-02-01T11:03:45;17.30;50.10
67899;DHT22;54699;51.796;10.956;2023-02-01T11:06:28;17.30;50.50
67899;DHT22;54699;51.796;10.956;2023-02-01T11:08:58;17.50;49.70
67899;DHT22;54699;51.796;10.956;2023-02-01T11:11:27;17.30;49.50
67899;DHT22;54699;51.796;10.956;2023-02-01T11:13:56;17.30;50.70
67899;DHT22;54699;51.796;10.956;2023-02-01T11:16:33;17.30;50.20
67899;DHT22;54699;51.796;10.956;2023-02-01T11:19:02;17.30;48.90
67899;DHT22;54699;51.796;10.956;2023-02-01T11:21:35;17.20;50.50
67899;DHT22;54699;51.796;10.956;2023-02-01T11:24:02;17.40;50.00
67899;DHT22;54699;51.796;10.956;2023-02-01T11:26:43;17.30;50.30
67899;DHT22;54699;51.796;10.956;2023-02-01T11:29:12;17.20;50.10
67899;DHT22;54699;51.796;10.956;2023-02-01T11:31:44;17.20;50.70
67899;DHT22;54699;51.796;10.956;2023-02-01T11:34:13;17.20;48.30
67899;DHT22;54699;51.796;10.956;2023-02-01T11:36:42;17.20;50.30
67899;DHT22;54699;51.796;10.956;2023-02-01T11:39:21;17.20;50.80
67899;DHT22;54699;51.796;10.956;2023-02-01T11:41:55;17.30;50.80
67899;DHT22;54699;51.796;10.956;2023-02-01T11:44:29;17.20;50.80
67899;DHT22;54699;51.796;10.956;2023-02-01T11:49:50;17.30;45.80
67899;DHT22;54699;51.796;10.956;2023-02-01T11:52:24;17.20;48.30
67899;DHT22;54699;51.796;10.956;2023-02-01T11:55:10;17.20;48.20
67899;DHT22;54699;51.796;10.956;2023-02-01T11:57:53;17.20;47.30
67899;DHT22;54699;51.796;10.956;2023-02-01T12:00:37;17.30;47.80
67899;DHT22;54699;51.796;10.956;2023-02-01T12:03:25;17.20;44.50
67899;DHT22;54699;51.796;10.956;2023-02-01T12:06:11;17.20;44.90
67899;DHT22;54699;51.796;10.956;2023-02-01T12:08:50;17.20;45.70
67899;DHT22;54699;51.796;10.956;2023-02-01T12:11:30;17.20;45.70
67899;DHT22;54699;51.796;10.956;2023-02-01T12:14:09;17.20;46.40
67899;DHT22;54699;51.796;10.956;2023-02-01T12:16:49;17.00;47.50
67899;DHT22;54699;51.796;10.956;2023-02-01T12:19:33;17.10;48.20
67899;DHT22;54699;51.796;10.956;2023-02-01T12:22:15;17.10;47.90
67899;DHT22;54699;51.796;10.956;2023-02-01T12:31:11;17.20;49.80
67899;DHT22;54699;51.796;10.956;2023-02-01T12:33:55;17.20;48.70
67899;DHT22;54699;51.796;10.956;2023-02-01T12:36:39;17.20;48.70
67899;DHT22;54699;51.796;10.956;2023-02-01T12:39:14;17.20;48.40
67899;DHT22;54699;51.796;10.956;2023-02-01T12:41:50;17.20;47.90
67899;DHT22;54699;51.796;10.956;2023-02-01T12:44:28;17.10;46.60
67899;DHT22;54699;51.796;10.956;2023-02-01T12:47:03;17.10;45.90
67899;DHT22;54699;51.796;10.956;2023-02-01T12:49:43;17.00;46.20
67899;DHT22;54699;51.796;10.956;2023-02-01T12:52:17;17.00;46.70
67899;DHT22;54699;51.796;10.956;2023-02-01T12:54:48;17.10;46.70
67899;DHT22;54699;51.796;10.956;2023-02-01T12:57:21;16.90;46.40
67899;DHT22;54699;51.796;10.956;2023-02-01T12:59:53;16.90;46.10
67899;DHT22;54699;51.796;10.956;2023-02-01T13:02:29;17.00;46.70
67899;DHT22;54699;51.796;10.956;2023-02-01T13:05:11;16.90;46.70
67899;DHT22;54699;51.796;10.956;2023-02-01T13:07:45;17.00;46.60
67899;DHT22;54699;51.796;10.956;2023-02-01T13:10:16;16.90;46.40
67899;DHT22;54699;51.796;10.956;2023-02-01T13:12:51;17.00;47.00
67899;DHT22;54699;51.796;10.956;2023-02-01T13:15:27;17.10;47.00
67899;DHT22;54699;51.796;10.956;2023-02-01T13:18:00;17.10;46.80
67899;DHT22;54699;51.796;10.956;2023-02-01T13:20:29;17.10;46.70
67899;DHT22;54699;51.796;10.956;2023-02-01T13:23:01;17.20;46.70
67899;DHT22;54699;51.796;10.956;2023-02-01T13:25:33;17.20;46.70
67899;DHT22;54699;51.796;10.956;2023-02-01T13:28:06;17.20;46.80
67899;DHT22;54699;51.796;10.956;2023-02-01T13:30:41;17.10;47.20
67899;DHT22;54699;51.796;10.956;2023-02-01T13:33:27;17.10;47.20
67899;DHT22;54699;51.796;10.956;2023-02-01T13:36:14;17.20;47.40
67899;DHT22;54699;51.796;10.956;2023-02-01T13:41:52;17.20;47.30
67899;DHT22;54699;51.796;10.956;2023-02-01T13:44:24;17.30;47.40
67899;DHT22;54699;51.796;10.956;2023-02-01T13:46:59;17.20;48.00
67899;DHT22;54699;51.796;10.956;2023-02-01T13:49:30;17.20;48.00
67899;DHT22;54699;51.796;10.956;2023-02-01T13:51:59;17.30;47.70
67899;DHT22;54699;51.796;10.956;2023-02-01T13:54:31;17.30;48.10
67899;DHT22;54699;51.796;10.956;2023-02-01T13:57:02;17.10;48.10
67899;DHT22;54699;51.796;10.956;2023-02-01T14:02:45;17.10;47.90
67899;DHT22;54699;51.796;10.956;2023-02-01T14:08:23;17.10;47.70
67899;DHT22;54699;51.796;10.956;2023-02-01T14:11:05;17.10;48.00
67899;DHT22;54699;51.796;10.956;2023-02-01T14:13:33;17.20;47.40
67899;DHT22;54699;51.796;10.956;2023-02-01T14:16:10;17.20;48.10
67899;DHT22;54699;51.796;10.956;2023-02-01T14:18:49;17.00;47.30
67899;DHT22;54699;51.796;10.956;2023-02-01T14:21:25;17.10;47.60
67899;DHT22;54699;51.796;10.956;2023-02-01T14:23:58;17.10;47.50
67899;DHT22;54699;51.796;10.956;2023-02-01T14:26:40;17.00;48.00
67899;DHT22;54699;51.796;10.956;2023-02-01T14:29:15;17.10;47.80
67899;DHT22;54699;51.796;10.956;2023-02-01T14:31:53;16.90;48.20
67899;DHT22;54699;51.796;10.956;2023-02-01T14:34:30;16.80;48.20
67899;DHT22;54699;51.796;10.956;2023-02-01T14:37:03;16.90;48.10
67899;DHT22;54699;51.796;10.956;2023-02-01T14:39:34;16.90;48.30
67899;DHT22;54699;51.796;10.956;2023-02-01T14:42:18;16.80;48.00
67899;DHT22;54699;51.796;10.956;2023-02-01T14:44:49;16.80;48.50
67899;DHT22;54699;51.796;10.956;2023-02-01T14:47:26;16.80;48.60
67899;DHT22;54699;51.796;10.956;2023-02-01T14:49:59;16.70;48.80
67899;DHT22;54699;51.796;10.956;2023-02-01T14:52:32;16.70;48.60
67899;DHT22;54699;51.796;10.956;2023-02-01T14:55:02;16.70;48.60
67899;DHT22;54699;51.796;10.956;2023-02-01T14:57:37;16.60;48.90
67899;DHT22;54699;51.796;10.956;2023-02-01T15:00:19;16.70;48.80
67899;DHT22;54699;51.796;10.956;2023-02-01T15:02:50;16.70;49.30
67899;DHT22;54699;51.796;10.956;2023-02-01T15:05:26;16.70;48.90
67899;DHT22;54699;51.796;10.956;2023-02-01T15:08:02;16.70;49.90
67899;DHT22;54699;51.796;10.956;2023-02-01T15:10:33;16.60;50.70
67899;DHT22;54699;51.796;10.956;2023-02-01T15:13:19;16.70;51.60
67899;DHT22;54699;51.796;10.956;2023-02-01T15:16:00;16.70;50.50
67899;DHT22;54699;51.796;10.956;2023-02-01T15:18:32;16.60;51.20
67899;DHT22;54699;51.796;10.956;2023-02-01T15:21:00;16.70;50.30
67899;DHT22;54699;51.796;10.956;2023-02-01T15:23:29;16.70;49.80
67899;DHT22;54699;51.796;10.956;2023-02-01T15:25:56;16.60;50.30
67899;DHT22;54699;51.796;10.956;2023-02-01T15:28:26;16.70;50.00
67899;DHT22;54699;51.796;10.956;2023-02-01T15:30:56;16.60;50.00
67899;DHT22;54699;51.796;10.956;2023-02-01T15:33:25;16.60;50.60
67899;DHT22;54699;51.796;10.956;2023-02-01T15:35:54;16.60;50.40
67899;DHT22;54699;51.796;10.956;2023-02-01T15:38:33;16.60;49.00
67899;DHT22;54699;51.796;10.956;2023-02-01T15:41:03;16.50;50.80
67899;DHT22;54699;51.796;10.956;2023-02-01T15:43:35;16.50;50.70
67899;DHT22;54699;51.796;10.956;2023-02-01T15:46:07;16.60;51.00
67899;DHT22;54699;51.796;10.956;2023-02-01T15:48:37;16.50;50.60
67899;DHT22;54699;51.796;10.956;2023-02-01T15:51:11;16.50;51.30
67899;DHT22;54699;51.796;10.956;2023-02-01T15:53:43;16.50;50.70
67899;DHT22;54699;51.796;10.956;2023-02-01T15:56:11;16.60;51.50
67899;DHT22;54699;51.796;10.956;2023-02-01T15:58:42;16.70;51.30
67899;DHT22;54699;51.796;10.956;2023-02-01T16:01:16;16.60;51.00
67899;DHT22;54699;51.796;10.956;2023-02-01T16:03:45;16.60;51.50
67899;DHT22;54699;51.796;10.956;2023-02-01T16:06:26;16.60;51.60
67899;DHT22;54699;51.796;10.956;2023-02-01T16:08:55;16.60;51.20
67899;DHT22;54699;51.796;10.956;2023-02-01T16:11:41;16.60;51.20